createdAt,value
2023-02-13T00:00:08.950Z,60.45
2023-02-13T00:02:35.547Z,60.71
2023-02-13T00:05:02.193Z,60.67
2023-02-13T00:07:28.736Z,60.75
2023-02-13T00:09:55.308Z,60.74
2023-02-13T00:12:21.930Z,60.67
2023-02-13T00:14:48.547Z,60.86
2023-02-13T00:17:15.122Z,60.69
2023-02-13T00:19:41.718Z,60.71
2023-02-13T00:22:08.610Z,60.83
2023-02-13T00:24:35.222Z,60.87
2023-02-13T00:27:01.750Z,60.91
2023-02-13T00:29:28.343Z,60.67
2023-02-13T00:31:55.009Z,60.95
2023-02-13T00:34:21.644Z,61.01
2023-02-13T00:36:48.192Z,61.02
2023-02-13T00:39:14.713Z,60.88
2023-02-13T00:41:41.248Z,60.78
2023-02-13T00:44:09.476Z,60.67
2023-02-13T00:46:36.589Z,60.63
2023-02-13T00:49:03.680Z,60.73
2023-02-13T00:51:30.419Z,60.83
2023-02-13T00:53:57.023Z,60.61
2023-02-13T00:56:23.567Z,60.79
2023-02-13T00:58:50.101Z,60.78
2023-02-13T01:01:16.680Z,60.69
2023-02-13T01:03:43.366Z,60.57
2023-02-13T01:06:10.108Z,60.65
2023-02-13T01:08:40.257Z,60.68
2023-02-13T01:11:07.234Z,60.68
2023-02-13T01:13:33.889Z,60.74
2023-02-13T01:16:00.935Z,60.67
2023-02-13T01:18:27.682Z,61.00
2023-02-13T01:21:02.977Z,60.99
2023-02-13T01:23:34.213Z,61.02
2023-02-13T01:26:00.880Z,61.00
2023-02-13T01:28:27.587Z,60.89
2023-02-13T01:30:55.447Z,60.83
2023-02-13T01:33:26.514Z,60.91
2023-02-13T01:35:53.574Z,61.06
2023-02-13T01:38:20.382Z,60.68
2023-02-13T01:40:51.972Z,60.54
2023-02-13T01:43:19.065Z,60.40
2023-02-13T01:45:47.651Z,60.38
2023-02-13T01:48:18.052Z,60.58
2023-02-13T01:50:47.750Z,60.25
2023-02-13T01:53:25.283Z,60.41
2023-02-13T01:56:33.918Z,60.57
2023-02-13T01:59:05.089Z,60.50
2023-02-13T02:01:32.012Z,60.54
2023-02-13T02:04:05.878Z,60.61
2023-02-13T02:06:36.025Z,60.65
2023-02-13T02:09:06.810Z,60.59
2023-02-13T02:11:43.149Z,60.63
2023-02-13T02:14:09.766Z,60.49
2023-02-13T02:16:36.461Z,60.58
2023-02-13T02:19:05.896Z,60.51
2023-02-13T02:21:58.538Z,60.59
2023-02-13T02:24:46.708Z,60.49
2023-02-13T02:27:13.191Z,60.46
2023-02-13T02:29:51.644Z,60.33
2023-02-13T02:32:21.053Z,60.50
2023-02-13T02:35:07.748Z,60.51
2023-02-13T02:37:52.440Z,60.27
2023-02-13T02:40:23.835Z,60.47
2023-02-13T02:43:24.177Z,60.22
2023-02-13T02:45:59.260Z,60.10
2023-02-13T02:48:48.560Z,60.29
2023-02-13T02:51:25.083Z,60.32
2023-02-13T02:54:27.404Z,60.06
2023-02-13T02:56:58.359Z,60.11
2023-02-13T02:59:43.963Z,60.11
2023-02-13T03:02:29.830Z,60.18
2023-02-13T03:05:16.449Z,60.31
2023-02-13T03:07:43.866Z,60.41
2023-02-13T03:10:37.855Z,60.47
2023-02-13T03:13:23.372Z,60.48
2023-02-13T03:16:16.665Z,60.52
2023-02-13T03:19:05.619Z,60.44
2023-02-13T03:21:53.823Z,60.54
2023-02-13T03:24:28.060Z,60.40
2023-02-13T03:27:06.445Z,60.30
2023-02-13T03:29:57.470Z,60.16
2023-02-13T03:32:45.317Z,60.22
2023-02-13T03:35:49.186Z,60.38
2023-02-13T03:38:21.821Z,60.28
2023-02-13T03:41:19.648Z,60.19
2023-02-13T03:43:55.359Z,60.33
2023-02-13T03:46:23.224Z,60.25
2023-02-13T03:49:08.229Z,60.22
2023-02-13T03:51:44.352Z,60.02
2023-02-13T03:55:02.941Z,59.97
2023-02-13T03:57:51.540Z,59.81
2023-02-13T04:00:18.848Z,59.80
2023-02-13T04:02:51.251Z,59.84
2023-02-13T04:05:21.618Z,59.88
2023-02-13T04:07:48.217Z,59.76
2023-02-13T04:10:16.941Z,59.79
2023-02-13T04:12:56.362Z,59.60
2023-02-13T04:15:30.561Z,59.53
2023-02-13T04:18:20.188Z,59.53
2023-02-13T04:20:47.060Z,59.50
2023-02-13T04:23:13.884Z,59.25
2023-02-13T04:25:42.558Z,59.28
2023-02-13T04:28:09.106Z,59.27
2023-02-13T04:30:35.684Z,59.29
2023-02-13T04:33:02.357Z,59.22
2023-02-13T04:35:28.883Z,59.26
2023-02-13T04:37:55.472Z,59.36
2023-02-13T04:40:22.058Z,59.20
2023-02-13T04:42:49.441Z,59.28
2023-02-13T04:45:16.821Z,59.26
2023-02-13T04:47:43.538Z,59.49
2023-02-13T04:50:10.340Z,59.33
2023-02-13T04:52:36.892Z,59.39
2023-02-13T04:55:04.088Z,59.44
2023-02-13T04:57:30.646Z,59.48
2023-02-13T04:59:57.243Z,59.48
2023-02-13T05:02:23.781Z,59.39
2023-02-13T05:04:50.477Z,59.37
2023-02-13T05:07:17.081Z,59.31
2023-02-13T05:09:43.671Z,59.13
2023-02-13T05:12:10.203Z,59.09
2023-02-13T05:14:36.865Z,58.95
2023-02-13T05:17:03.481Z,59.08
2023-02-13T05:19:30.010Z,58.99
2023-02-13T05:22:14.809Z,58.90
2023-02-13T05:24:41.311Z,58.73
2023-02-13T05:27:07.906Z,58.66
2023-02-13T05:29:34.510Z,58.72
2023-02-13T05:32:01.208Z,58.59
2023-02-13T05:34:28.720Z,58.39
2023-02-13T05:36:55.688Z,58.08
2023-02-13T05:39:22.460Z,57.89
2023-02-13T05:41:49.424Z,57.87
2023-02-13T05:44:16.202Z,57.82
2023-02-13T05:46:43.720Z,57.77
2023-02-13T05:49:12.850Z,57.34
2023-02-13T05:51:39.501Z,57.13
2023-02-13T05:54:06.134Z,57.00
2023-02-13T05:56:32.682Z,56.79
2023-02-13T05:58:59.629Z,56.81
2023-02-13T06:01:26.589Z,56.82
2023-02-13T06:03:53.332Z,56.83
2023-02-13T06:06:20.089Z,56.78
2023-02-13T06:08:46.605Z,56.61
2023-02-13T06:11:13.106Z,56.48
2023-02-13T06:13:42.506Z,56.33
2023-02-13T06:16:10.042Z,56.25
2023-02-13T06:18:36.973Z,56.36
2023-02-13T06:21:04.007Z,56.34
2023-02-13T06:23:30.594Z,56.33
2023-02-13T06:25:57.381Z,56.39
2023-02-13T06:28:24.005Z,56.39
2023-02-13T06:30:50.826Z,56.43
2023-02-13T06:33:17.572Z,56.44
2023-02-13T06:35:44.258Z,56.36
2023-02-13T06:38:10.752Z,56.30
2023-02-13T06:40:37.297Z,56.42
2023-02-13T06:43:03.993Z,56.66
2023-02-13T06:45:30.590Z,56.68
2023-02-13T06:47:57.097Z,56.61
2023-02-13T06:50:23.709Z,56.68
2023-02-13T06:52:51.597Z,56.69
2023-02-13T06:55:18.836Z,56.38
2023-02-13T06:57:45.888Z,56.50
2023-02-13T07:00:14.027Z,56.65
2023-02-13T07:02:41.639Z,56.38
2023-02-13T07:05:09.161Z,56.36
2023-02-13T07:07:36.934Z,56.28
2023-02-13T07:10:04.576Z,56.21
2023-02-13T07:12:33.998Z,56.19
2023-02-13T07:15:00.742Z,56.02
2023-02-13T07:17:27.374Z,56.07
2023-02-13T07:19:54.029Z,56.13
2023-02-13T07:22:20.701Z,56.26
2023-02-13T07:24:47.208Z,56.08
2023-02-13T07:27:13.807Z,56.09
2023-02-13T07:29:40.334Z,55.84
2023-02-13T07:32:07.237Z,55.68
2023-02-13T07:34:33.926Z,55.78
2023-02-13T07:37:00.495Z,55.80
2023-02-13T07:39:27.107Z,55.40
2023-02-13T07:41:53.712Z,55.36
2023-02-13T07:44:20.255Z,55.25
2023-02-13T07:46:46.845Z,55.41
2023-02-13T07:49:13.414Z,55.20
2023-02-13T07:51:39.933Z,54.99
2023-02-13T07:54:06.493Z,54.74
2023-02-13T07:56:33.186Z,54.66
2023-02-13T07:58:59.746Z,54.45
2023-02-13T08:01:26.925Z,54.28
2023-02-13T08:03:53.663Z,53.95
2023-02-13T08:06:20.703Z,53.79
2023-02-13T08:08:47.651Z,53.44
2023-02-13T08:11:51.747Z,53.12
2023-02-13T08:14:18.274Z,53.33
2023-02-13T08:16:44.870Z,53.34
2023-02-13T08:19:11.386Z,53.22
2023-02-13T08:21:38.319Z,53.09
2023-02-13T08:24:05.433Z,53.09
2023-02-13T08:26:32.457Z,52.87
2023-02-13T08:28:59.462Z,52.74
2023-02-13T08:31:26.462Z,52.70
2023-02-13T08:33:53.235Z,52.46
2023-02-13T08:36:20.038Z,52.43
2023-02-13T08:38:47.541Z,52.41
2023-02-13T08:41:14.701Z,52.30
2023-02-13T08:43:41.239Z,52.31
2023-02-13T08:46:07.892Z,52.15
2023-02-13T08:48:34.494Z,52.03
2023-02-13T08:51:00.983Z,52.24
2023-02-13T08:53:27.542Z,52.25
2023-02-13T08:55:55.547Z,52.22
2023-02-13T08:58:22.504Z,52.17
2023-02-13T09:00:49.155Z,52.03
2023-02-13T09:03:16.348Z,51.65
2023-02-13T09:05:43.150Z,51.78
2023-02-13T09:08:11.740Z,51.67
2023-02-13T09:10:39.258Z,51.70
2023-02-13T09:13:05.975Z,51.71
2023-02-13T09:15:32.627Z,51.72
2023-02-13T09:17:59.264Z,51.69
2023-02-13T09:20:25.992Z,52.07
2023-02-13T09:22:52.565Z,52.31
2023-02-13T09:25:20.344Z,52.42
2023-02-13T09:27:46.906Z,52.48
2023-02-13T09:30:22.779Z,52.67
2023-02-13T09:32:50.637Z,52.69
2023-02-13T09:35:18.093Z,52.58
2023-02-13T09:37:45.791Z,52.52
2023-02-13T09:40:20.574Z,52.34
2023-02-13T09:42:47.704Z,52.16
2023-02-13T09:45:15.290Z,52.25
2023-02-13T09:47:43.367Z,52.28
2023-02-13T09:50:23.278Z,52.28
2023-02-13T09:52:52.362Z,52.22
2023-02-13T09:55:18.924Z,52.31
2023-02-13T09:57:56.777Z,52.33
2023-02-13T10:00:33.564Z,52.33
2023-02-13T10:03:01.178Z,52.29
2023-02-13T10:05:42.601Z,52.42
2023-02-13T10:08:35.456Z,52.41
2023-02-13T10:11:14.113Z,52.42
2023-02-13T10:13:52.871Z,52.38
2023-02-13T10:16:34.649Z,52.32
2023-02-13T10:19:09.096Z,52.38
2023-02-13T10:21:42.926Z,52.53
2023-02-13T10:24:16.487Z,52.33
2023-02-13T10:26:45.938Z,52.36
2023-02-13T10:29:36.548Z,52.30
2023-02-13T10:32:06.109Z,52.30
2023-02-13T10:34:38.037Z,52.26
2023-02-13T10:37:11.389Z,52.28
2023-02-13T10:39:37.973Z,52.31
2023-02-13T10:42:16.416Z,52.07
2023-02-13T10:45:02.551Z,52.18
2023-02-13T10:47:56.983Z,52.14
2023-02-13T10:50:44.529Z,52.11
2023-02-13T10:53:21.774Z,52.00
2023-02-13T10:56:10.515Z,51.76
2023-02-13T10:58:47.091Z,51.99
2023-02-13T11:01:21.467Z,51.94
2023-02-13T11:04:07.946Z,51.89
2023-02-13T11:06:43.025Z,51.95
2023-02-13T11:09:09.957Z,51.91
2023-02-13T11:11:38.850Z,51.75
2023-02-13T11:14:25.343Z,51.69
2023-02-13T11:17:07.270Z,51.69
2023-02-13T11:19:39.735Z,51.76
2023-02-13T11:22:12.783Z,51.59
2023-02-13T11:24:52.133Z,51.59
2023-02-13T11:27:33.894Z,51.49
2023-02-13T11:30:04.074Z,51.53
2023-02-13T11:32:32.690Z,51.55
2023-02-13T11:35:26.334Z,51.46
2023-02-13T11:38:20.852Z,51.38
2023-02-13T11:40:53.113Z,51.35
2023-02-13T11:43:30.735Z,51.27
2023-02-13T11:46:22.063Z,51.43
2023-02-13T11:49:00.633Z,51.10
2023-02-13T11:51:47.971Z,51.25
2023-02-13T11:54:30.855Z,51.25
2023-02-13T11:57:32.895Z,51.17
2023-02-13T12:00:01.492Z,51.55
2023-02-13T12:02:46.175Z,51.52
2023-02-13T12:05:15.859Z,51.63
2023-02-13T12:07:43.044Z,51.50
2023-02-13T12:10:17.421Z,51.41
2023-02-13T12:12:54.471Z,51.40
2023-02-13T12:15:23.834Z,51.53
2023-02-13T12:18:08.556Z,51.37
2023-02-13T12:21:02.432Z,51.46
2023-02-13T12:23:35.015Z,51.45
2023-02-13T12:26:12.457Z,51.30
2023-02-13T12:29:16.110Z,51.29
2023-02-13T12:31:42.752Z,51.18
2023-02-13T12:34:25.318Z,51.28
2023-02-13T12:37:04.095Z,51.13
2023-02-13T12:39:35.436Z,51.21
2023-02-13T12:42:10.960Z,51.10
2023-02-13T12:44:43.871Z,51.18
2023-02-13T12:47:17.177Z,51.40
2023-02-13T12:49:49.527Z,51.63
2023-02-13T12:52:23.065Z,51.79
2023-02-13T12:55:23.922Z,51.91
2023-02-13T12:58:16.985Z,52.07
2023-02-13T13:00:55.449Z,52.12
2023-02-13T13:03:30.812Z,52.20
2023-02-13T13:06:09.120Z,52.17
2023-02-13T13:08:54.273Z,52.00
2023-02-13T13:11:39.281Z,51.94
2023-02-13T13:14:15.087Z,51.93
2023-02-13T13:16:55.606Z,51.80
2023-02-13T13:19:45.635Z,51.63
2023-02-13T13:22:25.949Z,51.82
2023-02-13T13:24:55.554Z,51.67
2023-02-13T13:27:28.270Z,51.70
2023-02-13T13:29:58.863Z,51.70
2023-02-13T13:32:26.156Z,51.70
2023-02-13T13:34:53.584Z,51.56
2023-02-13T13:37:37.010Z,51.63
2023-02-13T13:40:18.813Z,51.57
2023-02-13T13:42:53.474Z,51.64
2023-02-13T13:45:23.526Z,51.52
2023-02-13T13:48:11.360Z,51.41
2023-02-13T13:50:41.886Z,51.38
2023-02-13T13:53:16.037Z,51.16
2023-02-13T13:55:52.848Z,51.11
2023-02-13T13:58:40.556Z,51.10
2023-02-13T14:01:25.651Z,51.01
2023-02-13T14:03:59.820Z,51.03
2023-02-13T14:06:48.301Z,51.10
2023-02-13T14:09:26.840Z,51.12
2023-02-13T14:11:54.878Z,51.15
2023-02-13T14:14:27.572Z,51.20
2023-02-13T14:17:04.609Z,51.20
2023-02-13T14:19:37.738Z,51.17
2023-02-13T14:22:19.732Z,51.45
2023-02-13T14:24:53.943Z,51.56
2023-02-13T14:27:26.480Z,51.51
2023-02-13T14:29:53.210Z,51.44
2023-02-13T14:32:25.980Z,51.75
2023-02-13T14:34:56.339Z,51.81
2023-02-13T14:37:53.174Z,51.81
2023-02-13T14:40:19.913Z,51.75
2023-02-13T14:42:48.867Z,51.46
2023-02-13T14:45:27.961Z,51.29
2023-02-13T14:47:56.597Z,51.23
2023-02-13T14:50:34.858Z,51.15
2023-02-13T14:53:05.382Z,51.20
2023-02-13T14:55:42.624Z,51.18
2023-02-13T14:58:15.875Z,51.19
2023-02-13T15:01:05.555Z,51.31
2023-02-13T15:03:48.762Z,51.10
2023-02-13T15:06:27.669Z,51.11
2023-02-13T15:08:54.421Z,51.08
2023-02-13T15:11:39.435Z,51.00
2023-02-13T15:14:35.710Z,51.07
2023-02-13T15:17:30.644Z,51.10
2023-02-13T15:20:05.245Z,51.05
2023-02-13T15:22:37.538Z,51.08
2023-02-13T15:25:04.562Z,51.02
2023-02-13T15:27:34.249Z,50.96
2023-02-13T15:30:26.143Z,50.91
2023-02-13T15:32:58.475Z,50.78
2023-02-13T15:35:26.347Z,50.93
2023-02-13T15:37:54.852Z,50.86
2023-02-13T15:40:28.879Z,50.89
2023-02-13T15:42:56.557Z,50.94
2023-02-13T15:45:25.865Z,50.80
2023-02-13T15:47:53.475Z,50.75
2023-02-13T15:50:27.192Z,50.91
2023-02-13T15:52:54.398Z,50.76
2023-02-13T15:55:26.506Z,50.66
2023-02-13T15:57:55.240Z,50.62
2023-02-13T16:00:36.186Z,50.62
2023-02-13T16:03:04.759Z,50.59
2023-02-13T16:05:40.803Z,50.54
2023-02-13T16:08:29.776Z,50.58
2023-02-13T16:11:35.481Z,50.57
2023-02-13T16:14:39.579Z,50.48
2023-02-13T16:17:07.511Z,50.43
2023-02-13T16:19:38.202Z,50.43
2023-02-13T16:22:18.598Z,50.45
2023-02-13T16:24:49.175Z,50.52
2023-02-13T16:27:16.429Z,50.46
2023-02-13T16:29:57.405Z,50.29
2023-02-13T16:32:28.678Z,50.57
2023-02-13T16:34:56.193Z,50.65
2023-02-13T16:37:32.062Z,50.96
2023-02-13T16:40:33.854Z,51.02
2023-02-13T16:43:38.643Z,51.29
2023-02-13T16:46:24.397Z,51.28
2023-02-13T16:48:57.227Z,51.33
2023-02-13T16:51:30.118Z,51.29
2023-02-13T16:54:26.079Z,51.25
2023-02-13T16:56:56.270Z,51.17
2023-02-13T16:59:47.564Z,51.23
2023-02-13T17:02:16.851Z,51.22
2023-02-13T17:04:49.073Z,51.38
2023-02-13T17:07:30.117Z,51.28
2023-02-13T17:10:03.063Z,51.37
2023-02-13T17:12:31.236Z,51.55
2023-02-13T17:14:59.140Z,51.53
2023-02-13T17:17:27.896Z,51.54
2023-02-13T17:19:54.456Z,51.48
2023-02-13T17:22:33.419Z,51.67
2023-02-13T17:25:01.597Z,51.61
2023-02-13T17:27:28.828Z,51.55
2023-02-13T17:29:55.518Z,51.45
2023-02-13T17:32:27.385Z,51.32
2023-02-13T17:34:54.289Z,51.19
2023-02-13T17:37:26.323Z,51.26
2023-02-13T17:39:53.093Z,51.29
2023-02-13T17:42:23.350Z,51.33
2023-02-13T17:44:49.911Z,51.40
2023-02-13T17:47:16.585Z,51.30
2023-02-13T17:49:43.241Z,51.58
2023-02-13T17:52:15.232Z,51.55
2023-02-13T17:54:41.934Z,51.54
2023-02-13T17:57:08.507Z,51.60
2023-02-13T17:59:35.090Z,51.52
2023-02-13T18:02:01.786Z,51.60
2023-02-13T18:04:28.775Z,51.76
2023-02-13T18:06:55.441Z,51.88
2023-02-13T18:09:22.138Z,51.83
2023-02-13T18:12:04.568Z,51.98
2023-02-13T18:14:32.054Z,52.07
2023-02-13T18:16:58.882Z,52.10
2023-02-13T18:19:26.587Z,52.22
2023-02-13T18:21:53.253Z,52.33
2023-02-13T18:24:19.918Z,52.26
2023-02-13T18:26:46.546Z,52.38
2023-02-13T18:29:13.160Z,52.37
2023-02-13T18:31:39.813Z,52.22
2023-02-13T18:34:06.494Z,52.32
2023-02-13T18:36:33.099Z,52.54
2023-02-13T18:38:59.645Z,52.39
2023-02-13T18:41:26.245Z,52.50
2023-02-13T18:43:53.035Z,52.62
2023-02-13T18:46:19.615Z,52.54
2023-02-13T18:48:46.174Z,52.43
2023-02-13T18:51:12.755Z,52.81
2023-02-13T18:53:39.396Z,52.98
2023-02-13T18:56:07.988Z,53.45
2023-02-13T18:58:34.709Z,53.31
2023-02-13T19:01:16.444Z,53.47
2023-02-13T19:03:43.089Z,53.65
2023-02-13T19:06:12.430Z,53.57
2023-02-13T19:08:39.077Z,53.81
2023-02-13T19:11:12.241Z,53.81
2023-02-13T19:13:38.809Z,53.81
2023-02-13T19:16:15.497Z,53.95
2023-02-13T19:18:44.876Z,54.03
2023-02-13T19:21:11.757Z,53.89
2023-02-13T19:23:38.991Z,54.02
2023-02-13T19:26:17.301Z,53.99
2023-02-13T19:28:44.160Z,53.77
2023-02-13T19:31:15.097Z,53.76
2023-02-13T19:33:42.301Z,53.80
2023-02-13T19:36:14.208Z,53.61
2023-02-13T19:38:43.250Z,53.77
2023-02-13T19:41:12.407Z,53.77
2023-02-13T19:43:39.508Z,53.79
2023-02-13T19:46:13.282Z,53.89
2023-02-13T19:48:40.486Z,53.78
2023-02-13T19:51:08.089Z,53.77
2023-02-13T19:53:34.841Z,54.01
2023-02-13T19:56:02.639Z,53.98
2023-02-13T19:58:29.466Z,54.08
2023-02-13T20:00:56.536Z,53.95
2023-02-13T20:03:23.257Z,54.12
2023-02-13T20:05:49.768Z,53.99
2023-02-13T20:08:16.386Z,54.16
2023-02-13T20:10:46.133Z,54.07
2023-02-13T20:13:12.795Z,54.28
2023-02-13T20:15:40.724Z,54.19
2023-02-13T20:18:07.403Z,54.56
2023-02-13T20:20:33.930Z,54.54
2023-02-13T20:23:01.390Z,54.79
2023-02-13T20:25:32.102Z,54.96
2023-02-13T20:27:59.483Z,55.15
2023-02-13T20:30:26.293Z,55.06
2023-02-13T20:32:55.664Z,55.15
2023-02-13T20:35:22.625Z,55.34
2023-02-13T20:37:49.216Z,55.42
2023-02-13T20:40:15.795Z,55.52
2023-02-13T20:42:42.349Z,55.50
2023-02-13T20:45:09.181Z,55.38
2023-02-13T20:47:35.747Z,55.44
2023-02-13T20:50:02.324Z,55.44
2023-02-13T20:52:28.904Z,55.55
2023-02-13T20:54:55.464Z,55.76
2023-02-13T20:57:22.005Z,55.72
2023-02-13T20:59:48.634Z,55.64
2023-02-13T21:02:15.317Z,55.59
2023-02-13T21:04:41.957Z,55.66
2023-02-13T21:07:09.381Z,55.68
2023-02-13T21:09:38.870Z,55.91
2023-02-13T21:12:05.919Z,55.84
2023-02-13T21:14:32.434Z,55.85
2023-02-13T21:16:59.140Z,55.90
2023-02-13T21:19:26.169Z,55.83
2023-02-13T21:21:52.935Z,55.79
2023-02-13T21:24:21.932Z,55.70
2023-02-13T21:26:51.912Z,55.84
2023-02-13T21:29:19.037Z,55.75
2023-02-13T21:31:47.866Z,55.73
2023-02-13T21:34:15.493Z,55.87
2023-02-13T21:36:42.123Z,55.93
2023-02-13T21:39:09.965Z,55.81
2023-02-13T21:41:37.395Z,56.06
2023-02-13T21:44:04.406Z,56.05
2023-02-13T21:46:32.668Z,56.16
2023-02-13T21:49:01.047Z,56.30
2023-02-13T21:51:30.123Z,56.26
2023-02-13T21:53:57.780Z,56.25
2023-02-13T21:56:27.179Z,56.17
2023-02-13T21:58:54.555Z,56.16
2023-02-13T22:01:27.438Z,56.38
2023-02-13T22:04:01.046Z,56.34
2023-02-13T22:06:29.474Z,56.35
2023-02-13T22:09:01.781Z,56.34
2023-02-13T22:11:29.919Z,56.40
2023-02-13T22:14:00.098Z,56.64
2023-02-13T22:16:27.022Z,56.43
2023-02-13T22:18:53.713Z,56.27
2023-02-13T22:21:22.914Z,56.30
2023-02-13T22:23:50.007Z,56.36
2023-02-13T22:26:17.905Z,56.20
2023-02-13T22:28:45.006Z,56.27
2023-02-13T22:31:12.724Z,56.22
2023-02-13T22:33:39.437Z,56.27
2023-02-13T22:36:06.808Z,56.10
2023-02-13T22:38:37.233Z,56.19
2023-02-13T22:41:05.752Z,55.98
2023-02-13T22:43:32.398Z,56.24
2023-02-13T22:46:06.381Z,56.24
2023-02-13T22:48:35.390Z,56.38
2023-02-13T22:51:04.442Z,56.35
2023-02-13T22:53:31.489Z,56.30
2023-02-13T22:55:58.588Z,56.38
2023-02-13T22:58:25.757Z,56.31
2023-02-13T23:00:52.480Z,56.48
2023-02-13T23:03:19.128Z,56.12
2023-02-13T23:05:45.696Z,56.38
2023-02-13T23:08:12.308Z,56.46
2023-02-13T23:10:39.072Z,56.38
2023-02-13T23:13:10.063Z,56.40
2023-02-13T23:15:37.258Z,56.41
2023-02-13T23:18:13.956Z,56.42
2023-02-13T23:20:44.262Z,56.28
2023-02-13T23:23:11.076Z,56.55
2023-02-13T23:25:38.476Z,56.45
2023-02-13T23:28:06.171Z,56.63
2023-02-13T23:30:32.992Z,56.69
2023-02-13T23:33:00.212Z,56.73
2023-02-13T23:35:27.445Z,56.68
2023-02-13T23:37:54.257Z,56.73
2023-02-13T23:40:21.010Z,56.77
2023-02-13T23:42:47.584Z,56.52
2023-02-13T23:45:14.173Z,56.76
2023-02-13T23:47:40.795Z,56.82
2023-02-13T23:50:08.440Z,56.73
2023-02-13T23:52:34.942Z,56.72
2023-02-13T23:55:01.487Z,56.68
2023-02-13T23:57:28.016Z,56.53
2023-02-13T23:59:54.558Z,56.47
